createdAt,value
2019-03-11T00:01:42.954Z,5.30
2019-03-11T00:06:47.756Z,5.20
2019-03-11T00:11:52.607Z,5.30
2019-03-11T00:16:57.404Z,5.30
2019-03-11T00:22:03.913Z,5.30
2019-03-11T00:27:09.222Z,5.30
2019-03-11T00:32:13.974Z,5.30
2019-03-11T00:37:19.608Z,5.40
2019-03-11T00:42:25.728Z,5.40
2019-03-11T00:47:31.612Z,5.40
2019-03-11T00:52:38.507Z,5.50
2019-03-11T00:57:43.468Z,5.50
2019-03-11T01:02:51.271Z,5.60
2019-03-11T01:08:00.070Z,5.60
2019-03-11T01:13:04.976Z,5.60
2019-03-11T01:18:09.814Z,5.60
2019-03-11T01:23:14.626Z,5.70
2019-03-11T01:28:19.416Z,5.70
2019-03-11T01:33:24.513Z,5.70
2019-03-11T01:38:29.249Z,5.80
2019-03-11T01:43:35.030Z,5.80
2019-03-11T01:48:39.783Z,5.80
2019-03-11T01:53:44.784Z,5.90
2019-03-11T01:58:49.826Z,6.00
2019-03-11T02:03:56.372Z,6.00
2019-03-11T02:09:01.421Z,6.00
2019-03-11T02:14:07.913Z,6.00
2019-03-11T02:19:12.755Z,6.00
2019-03-11T02:24:19.317Z,6.00
2019-03-11T02:29:24.384Z,6.10
2019-03-11T02:34:29.143Z,6.10
2019-03-11T02:39:38.204Z,6.10
2019-03-11T02:44:42.932Z,6.10
2019-03-11T02:49:53.272Z,6.00
2019-03-11T02:54:58.700Z,5.80
2019-03-11T03:00:03.659Z,5.50
2019-03-11T03:05:16.285Z,5.30
2019-03-11T03:10:21.130Z,5.20
2019-03-11T03:15:26.036Z,5.10
2019-03-11T03:20:31.950Z,5.00
2019-03-11T03:25:38.404Z,4.90
2019-03-11T03:30:43.465Z,4.90
2019-03-11T03:35:49.905Z,4.80
2019-03-11T03:40:55.078Z,4.80
2019-03-11T03:46:01.388Z,4.70
2019-03-11T03:51:06.278Z,4.60
2019-03-11T03:56:11.168Z,4.50
2019-03-11T04:01:18.629Z,4.50
2019-03-11T04:06:23.408Z,4.50
2019-03-11T04:11:28.228Z,4.40
2019-03-11T04:16:33.149Z,4.40
2019-03-11T04:21:39.261Z,4.30
2019-03-11T04:26:44.145Z,4.30
2019-03-11T04:31:49.632Z,4.30
2019-03-11T04:36:57.562Z,4.30
2019-03-11T04:42:04.224Z,4.20
2019-03-11T04:47:09.200Z,4.20
2019-03-11T04:52:14.038Z,4.20
2019-03-11T04:57:19.031Z,4.10
2019-03-11T05:02:23.794Z,4.10
2019-03-11T05:07:28.550Z,4.10
2019-03-11T05:12:33.428Z,4.10
2019-03-11T05:17:38.300Z,4.00
2019-03-11T05:22:46.719Z,4.00
2019-03-11T05:27:52.677Z,4.00
2019-03-11T05:32:57.597Z,4.10
2019-03-11T05:38:02.625Z,4.00
2019-03-11T05:43:08.960Z,4.00
2019-03-11T05:48:14.868Z,4.00
2019-03-11T05:53:19.573Z,4.00
2019-03-11T05:58:25.659Z,4.00
2019-03-11T06:03:30.697Z,4.00
2019-03-11T06:08:35.570Z,4.00
2019-03-11T06:13:41.661Z,4.00
2019-03-11T06:18:51.752Z,4.00
2019-03-11T06:23:56.709Z,4.00
2019-03-11T06:29:01.628Z,4.00
2019-03-11T06:34:06.367Z,4.00
2019-03-11T06:39:12.796Z,4.00
2019-03-11T06:44:18.823Z,4.00
2019-03-11T06:49:23.556Z,3.90
2019-03-11T06:54:28.289Z,3.90
2019-03-11T06:59:33.815Z,3.90
2019-03-11T07:04:38.541Z,3.90
2019-03-11T07:09:43.240Z,3.90
2019-03-11T07:14:49.285Z,3.90
2019-03-11T07:19:54.041Z,4.00
2019-03-11T07:25:00.380Z,4.00
2019-03-11T07:30:07.057Z,4.00
2019-03-11T07:35:11.924Z,4.00
2019-03-11T07:40:28.383Z,4.10
2019-03-11T07:45:23.780Z,4.10
2019-03-11T07:50:28.800Z,4.20
2019-03-11T07:55:33.600Z,4.20
2019-03-11T08:00:38.923Z,4.20
2019-03-11T08:05:45.734Z,4.20
2019-03-11T08:10:50.505Z,4.30
2019-03-11T08:15:55.803Z,4.30
2019-03-11T08:21:05.881Z,4.40
2019-03-11T08:26:10.580Z,4.50
2019-03-11T08:31:15.417Z,4.50
2019-03-11T08:36:21.849Z,4.50
2019-03-11T08:41:26.504Z,4.60
2019-03-11T08:46:31.385Z,4.60
2019-03-11T08:51:36.477Z,4.60
2019-03-11T08:56:42.443Z,4.60
2019-03-11T09:01:49.765Z,4.60
2019-03-11T09:06:54.825Z,4.60
2019-03-11T09:11:59.753Z,4.60
2019-03-11T09:17:04.661Z,4.60
2019-03-11T09:22:11.772Z,4.60
2019-03-11T09:27:16.570Z,4.60
2019-03-11T09:32:21.481Z,4.60
2019-03-11T09:37:26.389Z,4.70
2019-03-11T09:42:31.183Z,4.70
2019-03-11T09:47:35.951Z,4.80
2019-03-11T09:52:40.759Z,4.80
2019-03-11T09:57:45.881Z,4.90
2019-03-11T10:02:52.997Z,4.80
2019-03-11T10:07:57.633Z,4.90
2019-03-11T10:13:06.644Z,4.90
2019-03-11T10:18:11.406Z,4.90
2019-03-11T10:23:16.390Z,5.00
2019-03-11T10:28:21.085Z,5.00
2019-03-11T10:33:27.216Z,5.00
2019-03-11T10:38:32.244Z,5.10
2019-03-11T10:43:37.289Z,5.10
2019-03-11T10:48:42.080Z,5.10
2019-03-11T10:53:46.779Z,5.10
2019-03-11T10:58:52.800Z,5.10
2019-03-11T11:03:58.729Z,5.20
2019-03-11T11:09:04.782Z,5.30
2019-03-11T11:14:11.089Z,5.40
2019-03-11T11:19:15.804Z,5.40
2019-03-11T11:24:20.588Z,5.50
2019-03-11T11:29:26.945Z,5.60
2019-03-11T11:34:31.737Z,5.60
2019-03-11T11:51:24.216Z,5.80
2019-03-11T11:56:35.280Z,5.90
2019-03-11T12:01:42.089Z,6.00
2019-03-11T12:06:48.388Z,6.10
2019-03-11T12:11:53.365Z,6.20
2019-03-11T12:17:02.322Z,6.20
2019-03-11T12:22:07.535Z,6.30
2019-03-11T12:27:15.566Z,6.40
2019-03-11T12:32:24.009Z,6.40
2019-03-11T12:37:30.085Z,6.40
2019-03-11T12:42:35.005Z,6.40
2019-03-11T12:47:39.832Z,6.40
2019-03-11T12:52:44.770Z,6.40
2019-03-11T12:57:51.464Z,6.40
2019-03-11T13:02:56.992Z,6.40
2019-03-11T13:08:04.166Z,6.50
2019-03-11T13:13:09.093Z,6.70
2019-03-11T13:18:36.312Z,6.90
2019-03-11T13:23:41.699Z,7.00
2019-03-11T13:28:47.730Z,7.20
2019-03-11T13:34:00.869Z,7.40
2019-03-11T13:39:03.448Z,7.60
2019-03-11T13:44:09.944Z,7.70
2019-03-11T13:49:15.141Z,7.90
2019-03-11T13:54:21.902Z,8.00
2019-03-11T13:59:28.776Z,8.00
2019-03-11T14:04:33.513Z,8.00
2019-03-11T14:09:38.611Z,7.80
2019-03-11T14:14:44.697Z,7.70
2019-03-11T14:19:49.589Z,7.60
2019-03-11T14:24:54.694Z,7.70
2019-03-11T14:30:00.036Z,7.80
2019-03-11T14:35:07.582Z,7.90
2019-03-11T14:40:13.921Z,8.00
2019-03-11T14:45:19.839Z,8.10
2019-03-11T14:50:25.124Z,8.10
2019-03-11T14:55:30.040Z,8.10
2019-03-11T15:00:35.372Z,8.20
2019-03-11T15:05:46.080Z,8.30
2019-03-11T15:10:47.969Z,8.40
2019-03-11T15:15:52.985Z,8.40
2019-03-11T15:20:57.713Z,8.50
2019-03-11T15:26:05.834Z,8.50
2019-03-11T15:31:11.102Z,8.50
2019-03-11T15:36:17.093Z,8.40
2019-03-11T15:41:21.797Z,8.30
2019-03-11T15:46:26.816Z,8.30
2019-03-11T15:51:36.885Z,8.30
2019-03-11T15:56:41.090Z,8.20
2019-03-11T16:01:45.918Z,8.20
2019-03-11T16:06:53.201Z,8.10
2019-03-11T16:11:58.737Z,8.00
2019-03-11T16:17:07.084Z,7.90
2019-03-11T16:22:22.449Z,7.90
2019-03-11T16:27:20.503Z,7.90
2019-03-11T16:32:27.849Z,7.90
2019-03-11T16:37:34.179Z,7.90
2019-03-11T16:42:39.108Z,7.90
2019-03-11T16:47:45.785Z,8.00
2019-03-11T16:52:50.893Z,7.90
2019-03-11T16:58:00.330Z,7.90
2019-03-11T17:03:08.005Z,7.90
2019-03-11T17:08:13.001Z,7.80
2019-03-11T17:13:19.919Z,7.80
2019-03-11T17:18:24.761Z,7.80
2019-03-11T17:23:29.816Z,7.80
2019-03-11T17:28:36.331Z,7.70
2019-03-11T17:33:41.500Z,7.80
2019-03-11T17:38:46.214Z,7.70
2019-03-11T17:43:51.119Z,7.70
2019-03-11T17:48:56.201Z,7.70
2019-03-11T17:54:03.809Z,7.70
2019-03-11T17:59:08.968Z,7.70
2019-03-11T18:04:14.142Z,7.70
2019-03-11T18:09:19.028Z,7.70
2019-03-11T18:14:25.192Z,7.70
2019-03-11T18:19:30.136Z,7.60
2019-03-11T18:24:36.946Z,7.60
2019-03-11T18:29:42.152Z,7.60
2019-03-11T18:34:47.344Z,7.60
2019-03-11T18:39:52.284Z,7.60
2019-03-11T18:44:57.154Z,7.70
2019-03-11T18:50:02.594Z,7.60
2019-03-11T18:55:07.564Z,7.60
2019-03-11T19:00:18.620Z,7.60
2019-03-11T19:05:24.039Z,7.50
2019-03-11T19:15:39.475Z,7.30
2019-03-11T19:20:44.308Z,7.30
2019-03-11T19:25:49.169Z,7.20
2019-03-11T19:30:56.561Z,7.10
2019-03-11T19:36:00.282Z,7.10
2019-03-11T19:41:05.616Z,7.00
2019-03-11T19:46:10.426Z,7.00
2019-03-11T19:51:15.816Z,7.00
2019-03-11T19:56:21.065Z,6.90
2019-03-11T20:01:26.860Z,6.80
2019-03-11T20:06:33.897Z,6.80
2019-03-11T20:11:40.241Z,6.80
2019-03-11T20:16:50.880Z,6.80
2019-03-11T20:21:57.548Z,6.70
2019-03-11T20:27:02.360Z,6.70
2019-03-11T20:32:07.532Z,6.70
2019-03-11T20:37:13.627Z,6.70
2019-03-11T20:42:18.750Z,6.70
2019-03-11T20:47:23.476Z,6.70
2019-03-11T20:52:30.009Z,6.70
2019-03-11T20:57:38.775Z,6.70
2019-03-11T21:02:45.791Z,6.70
2019-03-11T21:07:51.303Z,6.70
2019-03-11T21:12:57.307Z,6.80
2019-03-11T21:18:03.653Z,6.80
2019-03-11T21:23:08.738Z,6.80
2019-03-11T21:28:13.672Z,6.80
2019-03-11T21:33:18.846Z,6.80
2019-03-11T21:38:23.611Z,6.80
2019-03-11T21:43:28.320Z,6.80
2019-03-11T21:48:33.326Z,6.80
2019-03-11T21:53:38.118Z,6.80
2019-03-11T21:58:44.481Z,6.80
2019-03-11T22:03:52.920Z,6.80
2019-03-11T22:08:59.651Z,6.80
2019-03-11T22:14:04.475Z,6.80
2019-03-11T22:19:09.143Z,6.80
2019-03-11T22:24:14.832Z,6.80
2019-03-11T22:29:19.505Z,6.80
2019-03-11T22:34:24.764Z,6.80
2019-03-11T22:39:29.951Z,6.90
2019-03-11T22:44:34.712Z,6.90
2019-03-11T22:49:41.202Z,6.90
2019-03-11T22:54:45.900Z,6.90
2019-03-11T22:59:51.493Z,6.90
2019-03-11T23:04:56.252Z,6.90
2019-03-11T23:10:02.872Z,6.80
2019-03-11T23:15:09.469Z,6.80
2019-03-11T23:20:14.424Z,6.80
2019-03-11T23:25:19.163Z,6.70
2019-03-11T23:30:24.430Z,6.70
2019-03-11T23:35:30.698Z,6.70
2019-03-11T23:40:37.058Z,6.70
2019-03-11T23:45:43.219Z,6.70
2019-03-11T23:50:47.882Z,6.80
2019-03-11T23:55:55.806Z,6.70
